Arad, România

09:10 PM EEST on octombrie 25, 2014 (GMT +0300)
Arad | Change Station
CLOSE
Current Station
Aeroport
Location: Arad,
Elevation: 351 ft
Nearby Weather Stations

Elev 351 ft 46.18 °N, 21.26 °E | Updated 10 minutes ago

Mostly Cloudy
Cer în general noros
45 °F
Feels Like 42 °F
N
5
Vânt variabil Vânt from SV

astăzi
High -- | Low -- °F
--% Chance of Precip.
Ieri
High -- | Low -- °F
Precip. -- inch
8:05 AM 6:31 PM
Semilună în creştere, 4% visible
Presiunea 30.30 inch
Vizibilitatea 4.3 mile
Nori Cer în general noros 3400 ft
Vânt rece 42 °F
Punctul de rouă 43 °F
Umiditatea 93%
Precipitaţii 0.00 inch
Adâncimea zăpezii Not available.
UV 0 out of 12
Pollen Not available.
Calitatea aerului Not available.
Flu Activity Not available.
METAR LRAR 251800Z 23004KT 7000 BKN034 07/06 Q1026

More Conditions Fewer Conditions

Presiunea 30.30 inch
Vizibilitatea 4.3 mile
Nori Cer în general noros 3400 ft
Vânt rece 42 °F
Punctul de rouă 43 °F
Umiditatea 93%
Precipitaţii 0.00 inch
Adâncimea zăpezii Not available.
UV 0 out of 12
Pollen Not available.
Calitatea aerului Not available.
Flu Activity Not available.
METAR LRAR 251800Z 23004KT 7000 BKN034 07/06 Q1026

More Conditions Fewer Conditions

10-Day Weather Forecast

Almanac

Astronomie

Oct. 25, 2014 Răsărit Apus
Timpul Actual 8:05 AM EEST 6:31 PM EEST
Crepusculul Civil 7:34 AM EEST 7:02 PM EEST
Crepusculul nautic 6:59 AM EEST 7:37 PM EEST
Răsărit Astronomic 6:24 AM EEST 8:12 PM EEST
Luna 9:29 AM EEST 7:36 PM EEST
Durata zilei lumină 11h 27m
Lungimea zilei
10h 26m
Tomorrow will be 3m 3s shorter.
Semilună în creştere, 4% of the Moon is Illuminated
astăzi
Semilună în creştere
Oct 30
Primul pătrar
Nov 6
Lună plină
Nov 14
Ultimul pătrar
Nov 22
New

Extremele de azi

Country Highs Country Lows

Community

WunderPhotos

Upload Photos

1,764,928 photos uploaded!

Nearby

Calitatea aerului

Not available.

Adâncimea zapezii

Not available.

Earthquake Activity

Oraş Distance Mag. Time & Date
No recent earthquake activity has been reported nearby.
Minimum magnitude displayed is 2.5.

Coastal Water Temperatures

Locul Temperatura
No Stations Reporting

Nearby Weather Stations